Onalaska, Wisconsin
Current Conditions -  °F | °C
As of 9:53 PM on Saturday 24 Jan 2015 (Local Time) from KLSE Reporting Station
Overcast Overcast  
Wind Chill: 33°   Ceiling: 9500
Heat Index: 33°   Visibility: 10mi
Dew Point: 29°   Wind: 3mph
Humidity: 85%   Direction: 270°W
Pressure: 29.63"   Gusts: NA
Location:  43.88°N, 91.22°W
Report Text: KLSE 250353Z AUTO 27003KT 10SM OVC095 01/M02 A2963 RMK AO2 SLP044 T00061017
Loading
Personal Weather Stations






























Interactive Weather Map New forecast layout! Learn more

10-Day Weather Forecast

Advertisements
Track Severe Weather on mobile